Time;durP1;ratioP1;P1;durP2;ratioP2;P2;SDS_P1;SDS_P2;PMS_P1;PMS_P2;Temp;Humidity;BMP_temperature;BMP_pressure;BME280_temperature;BME280_humidity;BME280_pressure;Samples;Min_cycle;Max_cycle;Signal;HPM_P1;HPM_P2
2021/04/17 00:01:09;;;;;;;15.27;10.32;;;;;;;;;;6199696;28;20456;-79
2021/04/17 00:04:10;;;;;;;12.25;10.20;;;;;;;;;;6219183;28;20021;-78
2021/04/17 00:07:12;;;;;;;13.95;10.48;;;0.40;99.90;;;;;;6219426;28;20568;-79
2021/04/17 00:10:13;;;;;;;14.75;10.57;;;0.10;99.90;;;;;;6219127;28;20525;-79
2021/04/17 00:13:14;;;;;;;13.75;10.60;;;;;;;;;;6199002;28;20157;-79
2021/04/17 00:16:16;;;;;;;13.88;10.73;;;0.20;99.90;;;;;;6220763;28;20070;-78
2021/04/17 00:19:17;;;;;;;11.52;9.55;;;-0.10;99.90;;;;;;6206458;28;20048;-78
2021/04/17 00:22:17;;;;;;;13.50;10.63;;;-0.30;99.90;;;;;;6219287;28;20033;-78
2021/04/17 00:25:18;;;;;;;15.40;10.68;;;0.00;99.90;;;;;;6186947;28;20469;-79
2021/04/17 00:28:18;;;;;;;12.85;9.73;;;0.00;99.90;;;;;;6220658;28;20033;-78
2021/04/17 00:31:19;;;;;;;12.32;10.40;;;0.00;99.90;;;;;;6220536;28;20530;-79
2021/04/17 00:34:20;;;;;;;14.38;10.88;;;0.10;99.90;;;;;;6202438;28;20036;-79
2021/04/17 00:37:20;;;;;;;13.52;10.82;;;0.40;99.90;;;;;;6193866;28;20121;-79
2021/04/17 00:40:21;;;;;;;13.82;10.77;;;0.00;99.90;;;;;;6186571;28;20042;-79
2021/04/17 00:43:22;;;;;;;15.10;10.73;;;0.10;99.90;;;;;;6219640;28;20050;-79
2021/04/17 00:46:23;;;;;;;13.63;10.85;;;;;;;;;;6188762;28;20052;-79
2021/04/17 00:49:24;;;;;;;14.68;10.52;;;-0.10;99.90;;;;;;6218413;28;20030;-79
2021/04/17 00:52:24;;;;;;;12.93;10.70;;;-0.20;99.90;;;;;;6187198;28;20037;-79
2021/04/17 00:55:25;;;;;;;12.50;10.10;;;0.00;99.90;;;;;;6186275;28;20456;-78
2021/04/17 00:58:26;;;;;;;15.60;10.82;;;-0.30;99.90;;;;;;6217208;28;20037;-78
2021/04/17 01:01:26;;;;;;;14.38;10.68;;;-0.20;99.90;;;;;;6214625;28;20045;-79
2021/04/17 01:04:32;;;;;;;13.63;10.60;;;-0.40;99.90;;;;;;6205774;28;20763;-79
2021/04/17 01:07:41;;;;;;;16.25;10.70;;;-0.30;99.90;;;;;;6219718;28;20088;-79
2021/04/17 01:10:45;;;;;;;12.45;9.43;;;-0.40;99.90;;;;;;6214242;28;20108;-79
2021/04/17 01:13:46;;;;;;;15.15;10.80;;;;;;;;;;6201959;28;20080;-79
2021/04/17 01:16:47;;;;;;;13.68;10.35;;;-0.40;99.90;;;;;;6218005;28;20030;-79
2021/04/17 01:19:48;;;;;;;14.57;10.50;;;;;;;;;;6186994;28;20121;-78
2021/04/17 01:22:57;;;;;;;14.13;10.43;;;-0.50;99.90;;;;;;6218997;28;20026;-79
2021/04/17 01:26:17;;;;;;;15.00;10.50;;;-0.50;99.90;;;;;;6216592;28;20029;-79
2021/04/17 01:29:19;;;;;;;15.38;11.13;;;-0.50;99.90;;;;;;6209476;28;20022;-79
2021/04/17 01:32:19;;;;;;;15.00;11.38;;;-0.90;99.90;;;;;;6192996;28;20483;-79
2021/04/17 01:35:20;;;;;;;15.60;10.75;;;-0.60;99.90;;;;;;6217323;28;20101;-79
2021/04/17 01:38:30;;;;;;;14.27;10.52;;;-0.20;99.90;;;;;;6217108;28;20033;-79
2021/04/17 01:41:33;;;;;;;13.40;10.65;;;-0.40;99.90;;;;;;6218545;28;20117;-79
2021/04/17 01:44:35;;;;;;;11.25;9.30;;;-0.70;99.90;;;;;;6205377;28;20108;-78
2021/04/17 01:47:36;;;;;;;13.43;10.47;;;-0.60;99.90;;;;;;6214723;28;20460;-79
2021/04/17 01:50:36;;;;;;;16.20;10.70;;;-0.60;99.90;;;;;;6200273;28;20037;-78
2021/04/17 01:53:39;;;;;;;16.65;11.48;;;-0.70;99.90;;;;;;6188030;28;20041;-79
2021/04/17 01:56:39;;;;;;;15.52;11.32;;;-0.50;99.90;;;;;;6217318;28;20030;-78
2021/04/17 01:59:40;;;;;;;16.38;10.85;;;-0.50;99.90;;;;;;6213059;28;20500;-78
2021/04/17 02:02:41;;;;;;;19.27;12.00;;;-0.70;99.90;;;;;;6207619;28;20104;-79
2021/04/17 02:05:42;;;;;;;15.73;11.10;;;;;;;;;;6184528;28;20061;-79
2021/04/17 02:08:42;;;;;;;13.93;10.55;;;-0.50;99.90;;;;;;6209787;28;20045;-79
2021/04/17 02:11:43;;;;;;;13.85;10.90;;;-0.40;99.90;;;;;;6209251;28;20026;-79
2021/04/17 02:14:43;;;;;;;14.27;11.35;;;-0.20;99.90;;;;;;6207965;28;20463;-79
2021/04/17 02:17:56;;;;;;;14.55;10.90;;;-0.20;99.90;;;;;;6203598;28;20049;-79
2021/04/17 02:21:03;;;;;;;14.25;11.40;;;-0.30;99.90;;;;;;6198914;28;20037;-79
2021/04/17 02:24:05;;;;;;;14.15;11.07;;;-0.10;99.90;;;;;;6190834;28;20030;-78
2021/04/17 02:27:06;;;;;;;14.63;10.65;;;-0.50;99.90;;;;;;6205357;28;20080;-78
2021/04/17 02:30:07;;;;;;;15.38;11.73;;;-0.50;99.90;;;;;;6189441;28;20091;-78
2021/04/17 02:33:08;;;;;;;15.38;11.63;;;-0.60;99.90;;;;;;6223086;28;20033;-78
2021/04/17 02:36:08;;;;;;;16.02;11.68;;;-0.60;99.90;;;;;;6221139;28;20057;-78
2021/04/17 02:39:09;;;;;;;15.43;11.75;;;;;;;;;;6220871;28;20569;-78
2021/04/17 02:42:10;;;;;;;19.52;12.65;;;-0.50;99.90;;;;;;6189016;28;20057;-78
2021/04/17 02:45:11;;;;;;;16.75;12.10;;;-0.70;99.90;;;;;;6220838;28;20539;-78
2021/04/17 02:48:12;;;;;;;16.35;11.02;;;;;;;;;;6205332;28;20077;-78
2021/04/17 02:51:13;;;;;;;21.80;12.18;;;;;;;;;;6220699;28;20116;-79
2021/04/17 02:54:14;;;;;;;18.05;12.73;;;-0.90;99.90;;;;;;6220638;28;20060;-78
2021/04/17 02:57:15;;;;;;;18.00;11.85;;;;;;;;;;6220589;28;20034;-78
2021/04/17 03:00:18;;;;;;;15.10;10.88;;;-0.80;99.90;;;;;;6220321;28;20488;-78
2021/04/17 03:03:19;;;;;;;;;;;-0.80;99.90;;;;;;6204974;28;20029;-78
2021/04/17 03:06:20;;;;;;;17.02;12.25;;;;;;;;;;6221979;28;19916;-78
2021/04/17 03:09:20;;;;;;;16.55;11.90;;;-1.00;99.90;;;;;;6204240;28;20037;-78
2021/04/17 03:12:21;;;;;;;17.10;12.20;;;-1.00;99.90;;;;;;6203835;28;20415;-78
2021/04/17 03:15:21;;;;;;;18.33;12.23;;;-1.20;99.90;;;;;;6220333;28;20076;-78
2021/04/17 03:18:22;;;;;;;16.13;11.90;;;-1.10;99.90;;;;;;6190771;28;20510;-78
2021/04/17 03:21:23;;;;;;;17.13;12.85;;;-1.30;99.90;;;;;;6203092;28;20042;-78
2021/04/17 03:24:23;;;;;;;19.42;12.63;;;-1.20;99.90;;;;;;6219815;28;20084;-78
2021/04/17 03:27:24;;;;;;;17.10;12.30;;;-0.60;99.90;;;;;;6222089;28;20038;-78
2021/04/17 03:30:28;;;;;;;15.48;11.90;;;-1.20;99.90;;;;;;6220149;28;20069;-78
2021/04/17 03:33:29;;;;;;;16.75;12.38;;;-1.20;99.90;;;;;;6219917;28;20057;-78
2021/04/17 03:36:30;;;;;;;16.67;11.73;;;-1.50;99.90;;;;;;6219821;28;20030;-78
2021/04/17 03:39:30;;;;;;;17.35;13.02;;;-0.70;99.90;;;;;;6221261;28;20034;-78
2021/04/17 03:42:31;;;;;;;16.70;12.18;;;;;;;;;;6219479;28;20449;-78
2021/04/17 03:45:32;;;;;;;20.33;14.15;;;-0.60;99.90;;;;;;6221615;28;20033;-78
2021/04/17 03:48:33;;;;;;;17.10;12.95;;;-1.20;99.90;;;;;;6219709;28;20026;-78
2021/04/17 03:51:33;;;;;;;16.63;12.32;;;-1.50;99.90;;;;;;6219229;28;20049;-78
2021/04/17 03:54:34;;;;;;;17.38;12.43;;;-1.20;99.90;;;;;;6219513;28;20045;-78
2021/04/17 03:57:35;;;;;;;16.52;12.38;;;-1.20;99.90;;;;;;6219212;28;20057;-78
2021/04/17 04:00:36;;;;;;;16.80;11.90;;;-1.00;99.90;;;;;;6187173;28;20030;-78
2021/04/17 04:03:37;;;;;;;17.27;12.40;;;-1.30;99.90;;;;;;6219577;28;20113;-79
2021/04/17 04:06:37;;;;;;;18.55;12.90;;;-1.30;99.90;;;;;;6207517;28;20436;-78
2021/04/17 04:09:38;;;;;;;18.77;13.25;;;-0.80;99.90;;;;;;6219918;28;20076;-78
2021/04/17 04:12:42;;;;;;;19.50;12.85;;;-2.70;99.90;;;;;;6219511;28;20038;-78
2021/04/17 04:15:43;;;;;;;17.02;11.85;;;-1.20;99.90;;;;;;6219136;28;20108;-78
2021/04/17 04:18:44;;;;;;;18.52;13.32;;;;;;;;;;6220755;28;20037;-78
2021/04/17 04:21:45;;;;;;;18.45;13.32;;;-1.20;99.90;;;;;;6218981;28;20515;-79
2021/04/17 04:24:45;;;;;;;17.63;12.68;;;-1.20;99.90;;;;;;6218962;28;20068;-78
2021/04/17 04:27:46;;;;;;;17.63;12.77;;;;;;;;;;6187235;28;20033;-79
2021/04/17 04:30:47;;;;;;;19.30;13.55;;;-1.40;99.90;;;;;;6223158;28;20026;-79
2021/04/17 04:33:49;;;;;;;16.90;12.13;;;;;;;;;;6237571;28;20052;-79
2021/04/17 04:36:50;;;;;;;18.75;13.30;;;;;;;;;;6223537;28;20087;-79
2021/04/17 04:39:51;;;;;;;18.70;13.30;;;;;;;;;;6223074;28;20033;-78
2021/04/17 04:42:52;;;;;;;17.17;12.73;;;;;;;;;;6224485;28;20674;-79
2021/04/17 04:45:53;;;;;;;18.65;13.15;;;;;;;;;;6222706;28;20092;-79
2021/04/17 04:48:53;;;;;;;21.60;14.48;;;-1.10;99.90;;;;;;6236227;28;20036;-79
2021/04/17 04:51:54;;;;;;;17.70;13.70;;;;;;;;;;6220020;28;20045;-79
2021/04/17 04:54:55;;;;;;;19.48;13.80;;;-1.30;99.90;;;;;;6221323;28;20037;-79
2021/04/17 04:57:56;;;;;;;19.60;15.70;;;;;;;;;;6219121;28;20034;-79
2021/04/17 05:00:57;;;;;;;19.80;14.02;;;;;;;;;;6220802;28;20034;-80
2021/04/17 05:03:57;;;;;;;18.83;13.25;;;-1.10;99.90;;;;;;6219742;28;20042;-79
2021/04/17 05:06:58;;;;;;;17.55;12.98;;;0.70;99.90;;;;;;6217812;28;20068;-79
2021/04/17 05:09:58;;;;;;;25.15;16.35;;;0.70;99.90;;;;;;6219878;28;20025;-79
2021/04/17 05:12:59;;;;;;;20.05;14.60;;;0.90;99.90;;;;;;6201445;28;20400;-79
2021/04/17 05:16:00;;;;;;;19.83;14.35;;;0.30;99.90;;;;;;6201658;28;20032;-79
2021/04/17 05:19:00;;;;;;;19.88;14.35;;;0.40;99.90;;;;;;6185985;28;20030;-79
2021/04/17 05:22:01;;;;;;;17.25;13.20;;;2.10;99.40;;;;;;6219524;28;20037;-79
2021/04/17 05:25:02;;;;;;;17.90;13.07;;;1.10;99.90;;;;;;6217710;28;20036;-79
2021/04/17 05:28:03;;;;;;;19.85;13.52;;;0.70;99.90;;;;;;6217254;28;20030;-80
2021/04/17 05:31:04;;;;;;;21.17;14.80;;;0.80;99.90;;;;;;6217962;28;20488;-79
2021/04/17 05:34:08;;;;;;;19.00;14.35;;;0.30;99.90;;;;;;6219141;28;20057;-80
2021/04/17 05:37:08;;;;;;;20.63;14.75;;;1.00;97.20;;;;;;6185786;28;20079;-79
2021/04/17 05:40:10;;;;;;;18.83;14.00;;;2.30;98.20;;;;;;6218640;28;20042;-80
2021/04/17 05:43:11;;;;;;;17.08;13.20;;;;;;;;;;6200241;28;20058;-80
2021/04/17 05:46:11;;;;;;;25.35;16.42;;;2.20;99.90;;;;;;6218714;28;20026;-80
2021/04/17 05:49:13;;;;;;;18.58;14.25;;;;;;;;;;6219335;28;20380;-80
2021/04/17 05:52:13;;;;;;;23.00;15.73;;;3.00;92.90;;;;;;6206820;28;20030;-80
2021/04/17 05:55:14;;;;;;;15.38;11.95;;;3.80;92.80;;;;;;6184627;28;20034;-80
2021/04/17 05:58:15;;;;;;;18.80;12.90;;;4.20;91.30;;;;;;6218913;28;20030;-80
2021/04/17 06:01:16;;;;;;;18.15;13.73;;;;;;;;;;6200143;28;20553;-80
2021/04/17 06:04:17;;;;;;;17.75;13.52;;;;;;;;;;6190427;28;20028;-80
2021/04/17 06:07:20;;;;;;;16.52;13.40;;;4.90;87.90;;;;;;6210996;28;20384;-80
2021/04/17 06:10:20;;;;;;;16.52;12.35;;;5.80;94.60;;;;;;6216932;28;20491;-80
2021/04/17 06:13:21;;;;;;;16.83;13.75;;;5.80;88.70;;;;;;6217075;28;20033;-80
2021/04/17 06:16:21;;;;;;;18.00;14.68;;;6.70;95.10;;;;;;6217460;28;20349;-80
2021/04/17 06:19:22;;;;;;;17.13;11.68;;;6.90;93.00;;;;;;6216690;28;20034;-80
2021/04/17 06:22:23;;;;;;;16.90;13.05;;;7.40;93.30;;;;;;6199211;28;20074;-80
2021/04/17 06:25:23;;;;;;;17.42;13.13;;;7.30;93.30;;;;;;6220153;28;20438;-80
2021/04/17 06:28:24;;;;;;;17.83;13.38;;;7.40;80.50;;;;;;6216715;28;20042;-80
2021/04/17 06:31:24;;;;;;;22.38;15.38;;;7.80;91.50;;;;;;6215379;28;20108;-80
2021/04/17 06:34:25;;;;;;;18.45;13.98;;;8.00;79.10;;;;;;6219770;28;20383;-80
2021/04/17 06:37:26;;;;;;;16.45;12.80;;;;;;;;;;6218993;28;20030;-80
2021/04/17 06:40:27;;;;;;;15.13;11.90;;;8.70;87.70;;;;;;6216699;28;20038;-80
2021/04/17 06:43:32;;;;;;;18.92;15.00;;;8.90;74.20;;;;;;6176062;28;20100;-80
2021/04/17 06:46:32;;;;;;;18.92;12.57;;;9.30;70.80;;;;;;6192616;28;20053;-80
2021/04/17 06:49:33;;;;;;;16.25;13.10;;;9.40;72.00;;;;;;6193031;28;20034;-80
2021/04/17 06:52:37;;;;;;;17.20;13.55;;;9.50;71.00;;;;;;6192355;28;20039;-80
2021/04/17 06:55:38;;;;;;;16.00;13.02;;;9.30;83.10;;;;;;6194707;28;20370;-80
2021/04/17 06:58:39;;;;;;;19.13;14.27;;;9.90;71.20;;;;;;6198322;28;20034;-81
2021/04/17 07:01:40;;;;;;;17.00;13.10;;;9.60;69.50;;;;;;6212953;28;20038;-80
2021/04/17 07:04:41;;;;;;;18.25;13.98;;;9.60;82.30;;;;;;6197012;28;20061;-80
2021/04/17 07:07:42;;;;;;;18.50;13.38;;;9.60;68.90;;;;;;6196853;28;20117;-80
2021/04/17 07:10:43;;;;;;;16.55;12.75;;;9.30;69.70;;;;;;6197544;28;20503;-80
2021/04/17 07:14:05;;;;;;;18.33;13.77;;;9.10;69.50;;;;;;6196954;28;20080;-80
2021/04/17 07:17:06;;;;;;;16.55;12.45;;;9.40;65.90;;;;;;6198074;28;20042;-80
2021/04/17 07:20:12;;;;;;;16.25;13.38;;;9.70;70.80;;;;;;6196884;28;20038;-80
2021/04/17 07:23:32;;;;;;;17.52;12.77;;;9.90;83.90;;;;;;6196895;28;20025;-80
2021/04/17 07:26:32;;;;;;;16.88;12.13;;;10.30;79.00;;;;;;6196721;28;20038;-81
2021/04/17 07:29:40;;;;;;;15.00;12.10;;;10.60;62.70;;;;;;6180404;28;20169;-81
2021/04/17 07:32:42;;;;;;;17.15;12.90;;;10.40;66.30;;;;;;6195851;28;20030;-80
2021/04/17 07:35:43;;;;;;;14.98;12.55;;;11.40;65.40;;;;;;6196046;28;20539;-80
2021/04/17 07:38:45;;;;;;;19.88;15.27;;;11.30;75.20;;;;;;6196033;28;20035;-80
2021/04/17 07:41:45;;;;;;;13.43;11.52;;;11.40;61.00;;;;;;6200583;28;20058;-80
2021/04/17 07:44:48;;;;;;;15.13;11.75;;;11.40;59.60;;;;;;6205016;28;20034;-81
2021/04/17 07:47:49;;;;;;;;;;;11.80;60.50;;;;;;6198335;28;20453;-80
2021/04/17 07:50:49;;;;;;;14.35;12.25;;;10.80;75.90;;;;;;6197577;28;19914;-80
2021/04/17 07:53:50;;;;;;;12.70;10.93;;;;;;;;;;6205383;28;20041;-80
2021/04/17 07:57:09;;;;;;;12.52;10.93;;;11.30;90.60;;;;;;6219638;28;20044;-79
2021/04/17 08:00:15;;;;;;;11.18;9.98;;;11.40;56.90;;;;;;6208486;28;20137;-80
2021/04/17 08:03:17;;;;;;;11.48;10.15;;;11.20;76.90;;;;;;6180688;28;20034;-80
2021/04/17 08:06:18;;;;;;;13.07;10.45;;;11.60;78.40;;;;;;6199962;28;20128;-80
2021/04/17 08:09:20;;;;;;;12.07;10.48;;;11.50;60.30;;;;;;6219238;28;20042;-80
2021/04/17 08:12:21;;;;;;;;;;;11.50;60.10;;;;;;6219478;28;20025;-80
2021/04/17 08:15:25;;;;;;;12.82;10.20;;;11.00;56.00;;;;;;6217887;28;20315;-80
2021/04/17 08:18:27;;;;;;;10.73;9.00;;;11.00;77.70;;;;;;6195109;28;20027;-80
2021/04/17 08:21:27;;;;;;;11.50;9.70;;;10.70;90.60;;;;;;6194949;28;20072;-80
2021/04/17 08:24:29;;;;;;;10.68;8.82;;;10.70;90.80;;;;;;6219045;28;20033;-80
2021/04/17 08:27:31;;;;;;;9.68;7.72;;;11.20;76.80;;;;;;6218757;28;20112;-80
2021/04/17 08:30:32;;;;;;;11.95;8.85;;;;;;;;;;6202545;28;20040;-80
2021/04/17 08:33:33;;;;;;;10.77;8.88;;;;;;;;;;6220137;28;20405;-80
2021/04/17 08:36:37;;;;;;;8.57;7.55;;;10.50;90.50;;;;;;6218484;28;20025;-80
2021/04/17 08:39:40;;;;;;;9.68;7.63;;;9.80;76.30;;;;;;6199875;28;20038;-80
2021/04/17 08:42:46;;;;;;;9.15;7.60;;;9.50;92.10;;;;;;6194544;28;20128;-81
2021/04/17 08:46:15;;;;;;;10.88;7.53;;;9.60;76.40;;;;;;6199045;28;20455;-80
2021/04/17 08:49:20;;;;;;;9.80;8.10;;;10.00;92.00;;;;;;6210575;28;20037;-80
2021/04/17 08:52:24;;;;;;;10.13;8.20;;;9.50;78.80;;;;;;6194189;28;20069;-80
2021/04/17 08:55:49;;;;;;;10.63;8.30;;;9.60;77.50;;;;;;6193968;28;20472;-80
2021/04/17 08:59:08;;;;;;;12.68;9.27;;;9.00;83.90;;;;;;6172573;28;20100;-81
2021/04/17 09:02:13;;;;;;;10.70;8.10;;;9.10;94.60;;;;;;6194002;28;20428;-81
2021/04/17 09:05:15;;;;;;;10.02;7.80;;;8.80;83.60;;;;;;6194077;28;20477;-80
2021/04/17 09:08:16;;;;;;;10.82;8.48;;;;;;;;;;6194116;28;20034;-81
2021/04/17 09:11:50;;;;;;;9.07;7.10;;;10.20;93.60;;;;;;6193912;28;20026;-80
2021/04/17 09:14:55;;;;;;;8.85;7.53;;;10.60;85.70;;;;;;6188259;28;20042;-80
2021/04/17 09:17:56;;;;;;;10.10;7.50;;;10.60;91.40;;;;;;6196261;28;20047;-80
2021/04/17 09:20:57;;;;;;;8.52;6.60;;;;;;;;;;6193620;28;20118;-81
2021/04/17 09:23:58;;;;;;;10.10;6.88;;;10.20;72.00;;;;;;6193742;28;20448;-81
2021/04/17 09:26:58;;;;;;;8.43;6.50;;;10.30;62.50;;;;;;6184470;28;20031;-81
2021/04/17 09:30:02;;;;;;;8.57;6.47;;;10.40;63.00;;;;;;6193301;28;20033;-81
2021/04/17 09:33:02;;;;;;;8.75;6.82;;;10.60;61.90;;;;;;6193513;28;20034;-81
2021/04/17 09:36:04;;;;;;;10.10;6.20;;;10.60;61.60;;;;;;6187718;28;20354;-81
2021/04/17 09:39:22;;;;;;;9.38;5.80;;;10.10;59.20;;;;;;6193153;28;20136;-81
2021/04/17 09:42:30;;;;;;;7.13;5.90;;;10.50;59.50;;;;;;6193212;28;20057;-81
2021/04/17 09:45:35;;;;;;;7.68;5.72;;;10.40;60.50;;;;;;6193128;28;20106;-81
2021/04/17 09:48:40;;;;;;;10.25;5.95;;;10.50;56.60;;;;;;6176938;28;20031;-80
2021/04/17 09:51:41;;;;;;;6.25;5.50;;;10.30;61.80;;;;;;6193108;28;20149;-80
2021/04/17 09:54:41;;;;;;;8.05;5.82;;;10.20;60.20;;;;;;6193748;28;20039;-81
2021/04/17 09:57:46;;;;;;;7.78;5.97;;;9.90;63.30;;;;;;6193355;28;20104;-80
2021/04/17 10:00:48;;;;;;;8.18;5.78;;;9.70;62.90;;;;;;6192844;28;20046;-80
2021/04/17 10:04:00;;;;;;;6.10;5.20;;;9.30;80.00;;;;;;6194507;28;20416;-80
2021/04/17 10:07:02;;;;;;;7.68;5.55;;;9.20;62.70;;;;;;6205714;28;20033;-80
2021/04/17 10:10:05;;;;;;;7.43;5.68;;;9.70;62.60;;;;;;6194503;28;20480;-80
2021/04/17 10:13:05;;;;;;;11.82;6.93;;;9.40;62.50;;;;;;6193194;28;20104;-80
2021/04/17 10:16:06;;;;;;;9.15;6.93;;;9.70;65.60;;;;;;6192970;28;20031;-80
2021/04/17 10:19:14;;;;;;;10.05;8.95;;;9.70;62.30;;;;;;6192694;28;20354;-80
2021/04/17 10:22:17;;;;;;;11.15;8.63;;;9.70;63.00;;;;;;6192992;28;20038;-80
2021/04/17 10:25:41;;;;;;;8.90;6.55;;;9.70;63.80;;;;;;6176812;28;20054;-81
2021/04/17 10:28:41;;;;;;;8.05;6.55;;;10.20;60.90;;;;;;6194933;28;20062;-80
2021/04/17 10:31:42;;;;;;;8.45;6.63;;;10.20;61.00;;;;;;6182163;28;20391;-80
2021/04/17 10:34:50;;;;;;;8.80;7.38;;;10.60;64.10;;;;;;6213718;28;20794;-81
2021/04/17 10:37:53;;;;;;;8.82;7.93;;;;;;;;;;6197253;28;20104;-80
2021/04/17 10:40:54;;;;;;;10.88;7.88;;;10.60;63.40;;;;;;6211200;28;20039;-80
2021/04/17 10:44:15;;;;;;;8.73;6.97;;;11.00;64.70;;;;;;6190037;28;20025;-80
2021/04/17 10:47:15;;;;;;;10.30;8.20;;;11.90;64.10;;;;;;6221113;28;20034;-81
2021/04/17 10:50:21;;;;;;;9.48;7.78;;;12.40;60.50;;;;;;6205299;28;20515;-81
2021/04/17 10:53:27;;;;;;;12.07;7.75;;;12.50;56.40;;;;;;6220247;28;20477;-81
2021/04/17 10:56:28;;;;;;;11.05;7.75;;;12.20;59.60;;;;;;6237345;28;20033;-81
2021/04/17 10:59:55;;;;;;;9.95;7.43;;;11.30;90.30;;;;;;6222566;28;20377;-80
2021/04/17 11:02:56;;;;;;;9.68;8.05;;;11.60;78.70;;;;;;6205135;28;20361;-80
2021/04/17 11:06:39;;;;;;;11.40;8.32;;;11.70;61.10;;;;;;6188861;28;20022;-80
2021/04/17 11:09:47;;;;;;;10.10;8.10;;;11.20;57.50;;;;;;6214618;28;20041;-81
2021/04/17 11:12:47;;;;;;;12.77;8.55;;;10.70;64.00;;;;;;6204123;28;20289;-81
2021/04/17 11:15:48;;;;;;;10.27;7.95;;;10.30;64.60;;;;;;6188144;28;20041;-81
2021/04/17 11:18:48;;;;;;;9.57;8.07;;;10.40;65.60;;;;;;6209221;28;20152;-81
2021/04/17 11:22:11;;;;;;;8.77;7.03;;;10.60;61.90;;;;;;6204642;28;20034;-81
2021/04/17 11:25:12;;;;;;;7.22;6.53;;;10.50;59.70;;;;;;6213725;28;20136;-81
2021/04/17 11:28:13;;;;;;;8.02;6.20;;;10.50;61.50;;;;;;6188804;28;20480;-81
2021/04/17 11:31:16;;;;;;;7.35;6.25;;;10.70;60.80;;;;;;6220479;28;20026;-81
2021/04/17 11:34:17;;;;;;;9.27;6.68;;;10.80;60.80;;;;;;6203655;28;20028;-80
2021/04/17 11:37:18;;;;;;;7.63;6.63;;;10.60;62.70;;;;;;6189901;28;20539;-81
2021/04/17 11:40:19;;;;;;;7.82;6.65;;;;;;;;;;6203357;28;20061;-81
2021/04/17 11:43:20;;;;;;;12.52;10.25;;;10.30;58.10;;;;;;6221578;28;20056;-81
2021/04/17 11:46:20;;;;;;;9.65;8.02;;;10.30;62.80;;;;;;6210709;28;20052;-81
2021/04/17 11:49:21;;;;;;;10.88;8.55;;;10.20;66.30;;;;;;6187939;28;20448;-80
2021/04/17 11:52:22;;;;;;;7.18;6.03;;;10.10;79.90;;;;;;6209340;28;20034;-80
2021/04/17 11:55:23;;;;;;;7.57;6.38;;;10.30;76.70;;;;;;6220975;28;20049;-80
2021/04/17 11:58:24;;;;;;;9.82;6.35;;;10.20;63.00;;;;;;6192456;28;20030;-80
2021/04/17 12:01:25;;;;;;;9.52;6.78;;;10.00;63.20;;;;;;6219046;28;20499;-80
2021/04/17 12:04:26;;;;;;;8.13;5.75;;;10.20;80.30;;;;;;6187948;28;20030;-81
2021/04/17 12:07:26;;;;;;;7.00;6.25;;;10.40;78.10;;;;;;6219174;28;20069;-81
2021/04/17 12:10:27;;;;;;;8.27;6.30;;;10.30;92.10;;;;;;6219162;28;20029;-80
2021/04/17 12:13:28;;;;;;;12.30;6.43;;;10.50;92.60;;;;;;6207367;28;20061;-80
2021/04/17 12:16:29;;;;;;;7.63;6.00;;;;;;;;;;6203478;28;20120;-80
2021/04/17 12:19:29;;;;;;;6.40;5.60;;;10.60;76.50;;;;;;6214730;28;20406;-81
2021/04/17 12:22:30;;;;;;;6.63;5.35;;;10.70;90.40;;;;;;6219361;28;20022;-81
2021/04/17 12:25:31;;;;;;;6.88;4.97;;;10.70;74.10;;;;;;6202583;28;20036;-81
2021/04/17 12:28:32;;;;;;;7.70;5.47;;;;;;;;;;6218884;28;20029;-81
2021/04/17 12:31:32;;;;;;;7.30;4.78;;;11.20;88.90;;;;;;6235416;28;20049;-81
2021/04/17 12:34:33;;;;;;;8.15;5.05;;;;;;;;;;6206635;28;20034;-81
2021/04/17 12:37:34;;;;;;;5.97;4.80;;;;;;;;;;6215496;28;20560;-81
2021/04/17 12:40:35;;;;;;;6.82;4.65;;;11.30;69.70;;;;;;6216937;28;20407;-81
2021/04/17 12:43:37;;;;;;;8.10;4.50;;;11.50;87.60;;;;;;6201429;28;20130;-81
2021/04/17 12:46:40;;;;;;;6.32;4.68;;;11.40;84.10;;;;;;6220503;28;20542;-81
2021/04/17 12:49:41;;;;;;;;;;;11.60;72.60;;;;;;6217866;28;20045;-80
2021/04/17 12:52:42;;;;;;;7.38;5.70;;;;;;;;;;6217936;28;20379;-80
2021/04/17 12:55:42;;;;;;;7.93;5.20;;;11.60;68.50;;;;;;6203092;28;20108;-81
2021/04/17 12:58:43;;;;;;;7.90;4.93;;;11.90;73.40;;;;;;6219863;28;20461;-80
2021/04/17 13:01:45;;;;;;;5.75;5.07;;;11.80;65.70;;;;;;6218007;28;20052;-81
2021/04/17 13:04:45;;;;;;;6.82;6.10;;;12.00;59.10;;;;;;6188040;28;20034;-81
2021/04/17 13:07:46;;;;;;;8.27;6.63;;;12.20;58.00;;;;;;6215592;28;20460;-81
2021/04/17 13:10:46;;;;;;;6.80;5.70;;;12.50;57.80;;;;;;6219889;28;20034;-81
2021/04/17 13:13:47;;;;;;;7.85;5.38;;;12.30;57.50;;;;;;6217950;28;20030;-81
2021/04/17 13:16:48;;;;;;;7.68;5.57;;;12.60;73.30;;;;;;6220330;28;20384;-81
2021/04/17 13:19:48;;;;;;;8.32;6.10;;;12.90;57.90;;;;;;6212905;28;20076;-81
2021/04/17 13:22:51;;;;;;;7.82;7.03;;;12.90;58.10;;;;;;6204171;28;20030;-81
2021/04/17 13:25:52;;;;;;;7.60;6.38;;;12.70;57.30;;;;;;6211849;28;20033;-81
2021/04/17 13:28:52;;;;;;;10.77;6.50;;;12.60;57.90;;;;;;6217869;28;20037;-81
2021/04/17 13:31:53;;;;;;;9.73;6.65;;;12.40;76.00;;;;;;6219119;28;20392;-79
2021/04/17 13:34:54;;;;;;;9.27;7.05;;;;;;;;;;6213742;28;20477;-81
2021/04/17 13:37:55;;;;;;;8.95;6.80;;;12.10;72.90;;;;;;6217924;28;20029;-81
2021/04/17 13:40:55;;;;;;;10.40;7.38;;;12.10;58.90;;;;;;6212293;28;20045;-81
2021/04/17 13:43:56;;;;;;;13.90;6.95;;;12.30;59.60;;;;;;6217375;28;20029;-81
2021/04/17 13:46:57;;;;;;;7.55;6.75;;;11.80;58.60;;;;;;6217665;28;20092;-80
2021/04/17 13:49:57;;;;;;;15.55;7.07;;;11.90;57.60;;;;;;6200857;28;20708;-81
2021/04/17 13:52:58;;;;;;;8.45;6.88;;;11.80;59.00;;;;;;6217898;28;20380;-81
2021/04/17 13:55:58;;;;;;;8.20;6.07;;;11.80;71.30;;;;;;6208649;28;20109;-81
2021/04/17 13:58:59;;;;;;;7.80;6.32;;;11.80;58.40;;;;;;6185789;28;20030;-81
2021/04/17 14:02:03;;;;;;;7.55;5.88;;;11.50;71.70;;;;;;6215210;28;20116;-80
2021/04/17 14:05:04;;;;;;;9.15;6.13;;;11.60;75.40;;;;;;6222716;28;20080;-81
2021/04/17 14:08:06;;;;;;;7.35;6.00;;;11.50;57.20;;;;;;6211759;28;20081;-81
2021/04/17 14:11:09;;;;;;;9.83;7.63;;;11.50;57.80;;;;;;6209072;28;20030;-81
2021/04/17 14:14:10;;;;;;;8.93;6.07;;;11.10;76.80;;;;;;6209509;28;20022;-80
2021/04/17 14:17:11;;;;;;;10.00;6.00;;;11.20;72.00;;;;;;6202731;28;20045;-81
2021/04/17 14:20:12;;;;;;;15.43;6.57;;;11.80;59.30;;;;;;6213987;28;20891;-80
2021/04/17 14:23:13;;;;;;;8.43;6.50;;;11.20;57.80;;;;;;6192969;28;20362;-81
2021/04/17 14:26:14;;;;;;;8.95;6.78;;;11.20;58.50;;;;;;6225670;28;20025;-80
2021/04/17 14:29:14;;;;;;;7.47;5.85;;;11.10;59.30;;;;;;6208693;28;20491;-80
2021/04/17 14:32:15;;;;;;;6.28;5.45;;;11.10;60.00;;;;;;6208607;28;20021;-81
2021/04/17 14:35:17;;;;;;;9.25;6.30;;;11.40;59.60;;;;;;6224359;28;20032;-80
2021/04/17 14:38:18;;;;;;;10.48;6.57;;;10.70;61.30;;;;;;6193929;28;20034;-81
2021/04/17 14:41:19;;;;;;;7.07;6.18;;;10.70;60.50;;;;;;6226196;28;20046;-80
2021/04/17 14:44:19;;;;;;;9.98;6.53;;;10.70;76.80;;;;;;6218980;28;20025;-80
2021/04/17 14:47:20;;;;;;;7.35;6.00;;;10.90;59.30;;;;;;6216502;28;20114;-81
2021/04/17 14:50:21;;;;;;;7.43;5.60;;;10.60;59.30;;;;;;6223767;28;20037;-84
2021/04/17 14:53:22;;;;;;;7.03;5.07;;;;;;;;;;6216485;28;20084;-87
2021/04/17 14:56:23;;;;;;;8.30;5.63;;;10.60;53.40;;;;;;6208010;28;20477;-85
2021/04/17 14:59:24;;;;;;;7.00;6.03;;;;;;;;;;6208754;28;20042;-85
2021/04/17 15:02:24;;;;;;;7.20;6.28;;;10.50;56.20;;;;;;6219142;28;20034;-85
2021/04/17 15:05:25;;;;;;;7.93;6.20;;;;;;;;;;6192238;28;20034;-86
2021/04/17 15:08:26;;;;;;;8.52;6.28;;;10.60;57.20;;;;;;6217059;28;20061;-79
2021/04/17 15:11:26;;;;;;;8.60;6.70;;;10.60;61.40;;;;;;6226423;28;20030;-83
2021/04/17 15:14:27;;;;;;;10.05;7.05;;;;;;;;;;6192601;28;20026;-80
2021/04/17 15:17:28;;;;;;;9.32;6.85;;;10.30;78.50;;;;;;6208065;28;20022;-79
2021/04/17 15:20:30;;;;;;;7.65;6.82;;;10.40;61.20;;;;;;6187706;28;20567;-79
2021/04/17 15:23:31;;;;;;;8.98;6.78;;;10.30;63.10;;;;;;6198657;28;20037;-79
2021/04/17 15:26:31;;;;;;;10.40;6.50;;;10.50;77.70;;;;;;6220565;28;20038;-80
2021/04/17 15:29:34;;;;;;;7.65;6.43;;;10.10;77.10;;;;;;6198073;28;20073;-81
2021/04/17 15:32:37;;;;;;;9.13;6.97;;;10.10;88.20;;;;;;6198694;28;20137;-82
2021/04/17 15:35:40;;;;;;;12.95;8.20;;;10.10;77.30;;;;;;6220357;28;20030;-81
2021/04/17 15:38:41;;;;;;;23.48;17.88;;;10.40;78.80;;;;;;6219680;28;20037;-80
2021/04/17 15:41:41;;;;;;;10.43;8.50;;;10.20;90.60;;;;;;6212543;28;20093;-82
2021/04/17 15:44:45;;;;;;;12.35;7.32;;;10.30;76.30;;;;;;6199626;28;20054;-81
2021/04/17 15:47:46;;;;;;;8.32;6.07;;;;;;;;;;6188255;28;20030;-81
2021/04/17 15:50:47;;;;;;;9.55;8.52;;;;;;;;;;6219115;28;20557;-80
2021/04/17 15:53:51;;;;;;;6.97;6.07;;;;;;;;;;6206381;28;20030;-81
2021/04/17 15:57:02;;;;;;;8.95;6.57;;;;;;;;;;6206972;28;20072;-81
2021/04/17 16:16:36;;;;;;;6.55;5.47;;;10.40;90.10;;;;;;6212870;28;20034;-84